createdAt,value
2022-07-27T00:01:08.865Z,42.49
2022-07-27T00:03:36.718Z,43.03
2022-07-27T00:06:04.879Z,42.82
2022-07-27T00:08:32.710Z,42.97
2022-07-27T00:11:01.875Z,43.03
2022-07-27T00:13:29.644Z,42.99
2022-07-27T00:15:57.749Z,42.57
2022-07-27T00:18:25.557Z,42.56
2022-07-27T00:20:53.404Z,42.48
2022-07-27T00:23:21.198Z,42.70
2022-07-27T00:25:49.345Z,42.89
2022-07-27T00:28:18.557Z,42.88
2022-07-27T00:30:46.421Z,42.75
2022-07-27T00:33:17.369Z,42.73
2022-07-27T00:35:46.023Z,42.89
2022-07-27T00:38:13.836Z,42.21
2022-07-27T00:40:41.713Z,42.88
2022-07-27T00:43:09.634Z,42.24
2022-07-27T00:45:39.195Z,42.80
2022-07-27T00:48:07.334Z,42.20
2022-07-27T00:50:35.387Z,42.45
2022-07-27T00:53:04.913Z,42.29
2022-07-27T00:55:33.501Z,42.32
2022-07-27T00:58:01.368Z,42.72
2022-07-27T01:00:29.371Z,42.71
2022-07-27T01:02:58.637Z,42.97
2022-07-27T01:05:36.443Z,42.98
2022-07-27T01:08:06.811Z,42.38
2022-07-27T01:10:34.859Z,42.67
2022-07-27T01:13:02.964Z,42.52
2022-07-27T01:15:31.038Z,42.26
2022-07-27T01:18:04.763Z,42.72
2022-07-27T01:20:33.767Z,42.75
2022-07-27T01:23:03.002Z,42.69
2022-07-27T01:25:31.065Z,42.13
2022-07-27T01:27:58.815Z,42.24
2022-07-27T01:30:30.448Z,42.17
2022-07-27T01:33:02.257Z,42.61
2022-07-27T01:35:30.609Z,42.66
2022-07-27T01:37:58.471Z,42.12
2022-07-27T01:40:27.713Z,42.71
2022-07-27T01:42:55.484Z,42.71
2022-07-27T01:45:23.671Z,42.61
2022-07-27T01:47:51.495Z,42.61
2022-07-27T01:50:19.303Z,42.15
2022-07-27T01:52:47.176Z,42.10
2022-07-27T01:55:15.028Z,42.01
2022-07-27T01:57:44.163Z,42.31
2022-07-27T02:00:12.770Z,41.90
2022-07-27T02:02:40.695Z,42.05
2022-07-27T02:05:11.867Z,42.56
2022-07-27T02:07:40.968Z,42.13
2022-07-27T02:10:09.185Z,42.01
2022-07-27T02:12:35.980Z,42.05
2022-07-27T02:15:08.628Z,42.63
2022-07-27T02:17:43.649Z,42.13
2022-07-27T02:20:13.017Z,41.98
2022-07-27T02:22:40.785Z,42.29
2022-07-27T02:25:09.752Z,42.41
2022-07-27T02:27:37.604Z,42.19
2022-07-27T02:30:09.368Z,41.84
2022-07-27T02:32:37.163Z,41.72
2022-07-27T02:35:18.897Z,42.10
2022-07-27T02:37:48.410Z,42.27
2022-07-27T02:40:17.483Z,42.18
2022-07-27T02:42:45.546Z,42.33
2022-07-27T02:45:14.895Z,42.04
2022-07-27T02:47:42.984Z,41.90
2022-07-27T02:50:11.302Z,41.78
2022-07-27T02:52:39.168Z,41.94
2022-07-27T02:55:07.684Z,41.83
2022-07-27T02:57:37.898Z,41.67
2022-07-27T03:00:07.552Z,41.68
2022-07-27T03:02:36.708Z,42.12
2022-07-27T03:05:05.156Z,41.88
2022-07-27T03:07:33.312Z,42.28
2022-07-27T03:10:01.192Z,41.74
2022-07-27T03:12:29.002Z,41.82
2022-07-27T03:14:57.763Z,41.62
2022-07-27T03:17:25.981Z,41.82
2022-07-27T03:19:55.190Z,41.84
2022-07-27T03:22:22.981Z,41.73
2022-07-27T03:24:50.826Z,42.10
2022-07-27T03:27:18.667Z,41.88
2022-07-27T03:29:46.512Z,41.91
2022-07-27T03:32:14.355Z,41.81
2022-07-27T03:34:42.160Z,41.78
2022-07-27T03:37:11.710Z,41.61
2022-07-27T03:39:39.581Z,42.28
2022-07-27T03:42:07.633Z,42.17
2022-07-27T03:44:35.388Z,42.36
2022-07-27T03:47:03.553Z,41.72
2022-07-27T03:49:32.093Z,42.05
2022-07-27T03:52:00.033Z,42.13
2022-07-27T03:54:29.280Z,41.72
2022-07-27T03:56:57.477Z,41.83
2022-07-27T03:59:27.435Z,41.64
2022-07-27T04:01:55.390Z,42.22
2022-07-27T04:04:23.191Z,41.61
2022-07-27T04:06:51.439Z,41.73
2022-07-27T04:09:19.867Z,41.59
2022-07-27T04:11:51.153Z,41.84
2022-07-27T04:14:19.905Z,41.65
2022-07-27T04:16:48.067Z,42.05
2022-07-27T04:19:16.182Z,42.15
2022-07-27T04:21:44.190Z,42.28
2022-07-27T04:24:11.985Z,41.67
2022-07-27T04:26:40.020Z,41.73
2022-07-27T04:29:09.507Z,42.05
2022-07-27T04:31:37.655Z,42.06
2022-07-27T04:34:05.537Z,41.70
2022-07-27T04:36:33.592Z,42.02
2022-07-27T04:39:01.357Z,41.71
2022-07-27T04:41:29.653Z,42.04
2022-07-27T04:43:58.695Z,41.60
2022-07-27T04:46:29.675Z,42.05
2022-07-27T04:48:57.835Z,41.82
2022-07-27T04:51:25.755Z,41.99
2022-07-27T04:53:58.636Z,41.76
2022-07-27T04:56:26.816Z,42.08
2022-07-27T04:58:54.637Z,42.00
2022-07-27T05:01:23.858Z,41.95
2022-07-27T05:03:53.149Z,41.41
2022-07-27T05:06:21.427Z,41.52
2022-07-27T05:08:49.236Z,41.52
2022-07-27T05:11:17.084Z,41.66
2022-07-27T05:13:44.842Z,41.54
2022-07-27T05:16:13.088Z,41.52
2022-07-27T05:18:40.973Z,41.48
2022-07-27T05:21:10.117Z,41.84
2022-07-27T05:23:37.889Z,41.91
2022-07-27T05:26:06.193Z,41.38
2022-07-27T05:28:33.941Z,41.89
2022-07-27T05:31:01.747Z,41.55
2022-07-27T05:33:29.620Z,42.01
2022-07-27T05:35:57.449Z,41.75
2022-07-27T05:38:27.029Z,41.59
2022-07-27T05:40:54.820Z,41.79
2022-07-27T05:43:22.602Z,42.00
2022-07-27T05:45:50.903Z,41.44
2022-07-27T05:48:18.711Z,41.42
2022-07-27T05:50:46.538Z,41.59
2022-07-27T05:53:14.384Z,41.93
2022-07-27T05:55:59.065Z,41.95
2022-07-27T05:58:27.560Z,41.33
2022-07-27T06:00:56.438Z,42.04
2022-07-27T06:03:24.908Z,41.37
2022-07-27T06:05:52.773Z,41.21
2022-07-27T06:08:19.611Z,41.62
2022-07-27T06:10:48.722Z,41.31
2022-07-27T06:13:16.538Z,41.21
2022-07-27T06:15:44.739Z,41.35
2022-07-27T06:18:18.202Z,41.37
2022-07-27T06:20:47.757Z,41.06
2022-07-27T06:23:15.533Z,41.82
2022-07-27T06:25:43.738Z,41.12
2022-07-27T06:28:12.944Z,41.77
2022-07-27T06:30:43.131Z,41.81
2022-07-27T06:33:10.885Z,41.19
2022-07-27T06:35:39.334Z,41.79
2022-07-27T06:38:07.205Z,41.27
2022-07-27T06:40:35.452Z,41.20
2022-07-27T06:43:03.322Z,41.45
2022-07-27T06:45:33.003Z,41.21
2022-07-27T06:48:00.790Z,41.81
2022-07-27T06:50:28.568Z,41.37
2022-07-27T06:52:56.381Z,41.84
2022-07-27T06:55:24.498Z,41.30
2022-07-27T06:57:52.333Z,41.20
2022-07-27T07:00:20.124Z,41.14
2022-07-27T07:02:59.075Z,41.29
2022-07-27T07:05:27.411Z,41.55
2022-07-27T07:07:55.429Z,41.25
2022-07-27T07:10:24.120Z,41.62
2022-07-27T07:12:55.545Z,41.30
2022-07-27T07:15:24.787Z,41.74
2022-07-27T07:17:52.535Z,41.57
2022-07-27T07:20:21.641Z,41.82
2022-07-27T07:22:49.693Z,41.21
2022-07-27T07:25:18.055Z,41.72
2022-07-27T07:27:46.202Z,41.17
2022-07-27T07:30:14.405Z,41.13
2022-07-27T07:32:42.155Z,41.13
2022-07-27T07:35:11.663Z,41.20
2022-07-27T07:37:41.261Z,41.59
2022-07-27T07:40:41.392Z,41.49
2022-07-27T07:43:00.090Z,41.10
2022-07-27T07:45:28.929Z,41.44
2022-07-27T07:47:56.747Z,41.54
2022-07-27T07:50:24.987Z,41.08
2022-07-27T07:52:54.610Z,41.61
2022-07-27T07:55:22.628Z,41.09
2022-07-27T07:57:50.708Z,41.49
2022-07-27T08:00:19.730Z,41.65
2022-07-27T08:02:47.930Z,41.03
2022-07-27T08:05:15.807Z,41.59
2022-07-27T08:07:44.099Z,40.99
2022-07-27T08:10:13.929Z,40.95
2022-07-27T08:12:43.833Z,41.01
2022-07-27T08:15:12.606Z,41.09
2022-07-27T08:17:41.059Z,41.52
2022-07-27T08:20:09.621Z,41.46
2022-07-27T08:22:37.513Z,41.42
2022-07-27T08:25:05.879Z,41.10
2022-07-27T08:27:40.706Z,40.98
2022-07-27T08:30:12.556Z,40.91
2022-07-27T08:32:50.337Z,41.19
2022-07-27T08:35:18.985Z,40.89
2022-07-27T08:37:46.771Z,41.30
2022-07-27T08:43:05.055Z,41.02
2022-07-27T08:45:33.703Z,40.84
2022-07-27T08:48:01.543Z,40.91
2022-07-27T08:50:30.619Z,41.21
2022-07-27T08:53:03.242Z,41.24
2022-07-27T08:55:31.533Z,40.79
2022-07-27T08:58:02.999Z,40.79
2022-07-27T09:00:33.071Z,41.35
2022-07-27T09:03:01.015Z,41.47
2022-07-27T09:05:37.594Z,40.74
2022-07-27T09:08:12.553Z,40.91
2022-07-27T09:10:40.372Z,41.31
2022-07-27T09:13:21.654Z,40.87
2022-07-27T09:18:40.310Z,41.16
2022-07-27T09:21:12.381Z,41.31
2022-07-27T09:23:40.384Z,40.88
2022-07-27T09:26:29.630Z,40.93
2022-07-27T09:29:00.342Z,41.23
2022-07-27T09:31:29.562Z,41.49
2022-07-27T09:33:58.800Z,41.23
2022-07-27T09:36:28.140Z,41.11
2022-07-27T09:39:00.148Z,41.20
2022-07-27T09:41:29.854Z,41.42
2022-07-27T09:46:48.411Z,41.10
2022-07-27T09:49:28.100Z,40.89
2022-07-27T09:51:59.934Z,41.36
2022-07-27T09:54:28.663Z,41.25
2022-07-27T09:57:01.446Z,40.79
2022-07-27T09:59:29.337Z,40.83
2022-07-27T10:01:58.825Z,40.98
2022-07-27T10:04:26.868Z,40.88
2022-07-27T10:07:05.282Z,40.82
2022-07-27T10:09:35.905Z,40.91
2022-07-27T10:12:04.627Z,40.98
2022-07-27T10:14:33.398Z,41.38
2022-07-27T10:17:03.038Z,41.26
2022-07-27T10:19:35.505Z,41.26
2022-07-27T10:22:03.725Z,41.00
2022-07-27T10:24:33.893Z,40.76
2022-07-27T10:27:18.696Z,40.84
2022-07-27T10:29:47.898Z,40.83
2022-07-27T10:32:24.070Z,40.68
2022-07-27T10:34:51.924Z,40.86
2022-07-27T10:37:26.176Z,41.28
2022-07-27T10:40:15.021Z,41.27
2022-07-27T10:42:43.129Z,41.33
2022-07-27T10:45:11.387Z,40.88
2022-07-27T10:47:42.560Z,40.88
2022-07-27T10:50:32.615Z,40.84
2022-07-27T10:53:05.059Z,41.00
2022-07-27T10:55:51.639Z,41.26
2022-07-27T10:58:44.645Z,41.02
2022-07-27T11:01:14.824Z,40.77
2022-07-27T11:03:52.823Z,40.96
2022-07-27T11:06:55.410Z,41.38
2022-07-27T11:12:10.324Z,41.26
2022-07-27T11:14:46.705Z,41.26
2022-07-27T11:17:50.574Z,41.02
2022-07-27T11:20:03.891Z,41.25
2022-07-27T11:23:03.130Z,40.87
2022-07-27T11:25:21.354Z,40.77
2022-07-27T11:27:49.615Z,40.75
2022-07-27T11:30:24.962Z,41.39
2022-07-27T11:32:52.824Z,41.11
2022-07-27T11:35:22.018Z,41.17
2022-07-27T11:38:00.309Z,40.82
2022-07-27T11:43:33.942Z,40.74
2022-07-27T11:46:15.444Z,40.80
2022-07-27T11:49:10.393Z,40.88
2022-07-27T11:51:41.558Z,41.20
2022-07-27T11:54:10.168Z,40.82
2022-07-27T11:56:38.935Z,41.13
2022-07-27T11:59:08.900Z,40.92
2022-07-27T12:01:38.532Z,40.87
2022-07-27T12:04:18.919Z,40.98
2022-07-27T12:06:50.239Z,40.94
2022-07-27T12:09:18.363Z,40.79
2022-07-27T12:11:50.168Z,41.35
2022-07-27T12:14:18.224Z,41.27
2022-07-27T12:16:46.614Z,40.87
2022-07-27T12:19:22.415Z,41.38
2022-07-27T12:21:54.133Z,41.17
2022-07-27T12:24:33.779Z,40.92
2022-07-27T12:27:06.791Z,40.78
2022-07-27T12:29:35.033Z,40.92
2022-07-27T12:32:04.311Z,40.81
2022-07-27T12:34:36.543Z,41.24
2022-07-27T12:37:13.817Z,40.75
2022-07-27T12:39:43.174Z,40.95
2022-07-27T12:42:13.486Z,41.26
2022-07-27T12:44:42.047Z,41.19
2022-07-27T12:47:28.274Z,41.35
2022-07-27T12:50:04.428Z,41.35
2022-07-27T12:52:33.960Z,41.43
2022-07-27T12:55:01.855Z,41.29
2022-07-27T12:57:53.874Z,40.96
2022-07-27T13:00:18.868Z,41.50
2022-07-27T13:02:46.785Z,41.04
2022-07-27T13:05:15.373Z,41.49
2022-07-27T13:07:46.050Z,40.86
2022-07-27T13:10:14.082Z,41.26
2022-07-27T13:12:42.009Z,41.19
2022-07-27T13:15:10.364Z,41.00
2022-07-27T13:17:38.768Z,40.85
2022-07-27T13:20:09.813Z,41.63
2022-07-27T13:22:37.660Z,40.96
2022-07-27T13:25:16.285Z,41.07
2022-07-27T13:27:44.584Z,40.88
2022-07-27T13:30:13.529Z,41.45
2022-07-27T13:32:41.450Z,41.40
2022-07-27T13:35:10.182Z,41.00
2022-07-27T13:37:38.371Z,40.96
2022-07-27T13:40:08.953Z,41.33
2022-07-27T13:42:36.808Z,41.37
2022-07-27T13:45:10.036Z,40.86
2022-07-27T13:47:39.024Z,41.37
2022-07-27T13:50:13.326Z,40.97
2022-07-27T13:52:46.152Z,41.13
2022-07-27T13:55:15.946Z,40.84
2022-07-27T13:57:44.160Z,41.52
2022-07-27T14:00:13.073Z,40.97
2022-07-27T14:02:41.779Z,41.24
2022-07-27T14:05:13.133Z,40.96
2022-07-27T14:07:41.934Z,41.15
2022-07-27T14:10:23.977Z,41.45
2022-07-27T14:12:56.902Z,41.36
2022-07-27T14:15:26.781Z,41.00
2022-07-27T14:17:54.761Z,41.49
2022-07-27T14:20:22.738Z,40.93
2022-07-27T14:22:50.557Z,41.69
2022-07-27T14:25:18.367Z,41.25
2022-07-27T14:27:47.046Z,41.37
2022-07-27T14:30:20.586Z,41.37
2022-07-27T14:32:48.880Z,41.07
2022-07-27T14:35:16.695Z,41.49
2022-07-27T14:37:44.814Z,41.40
2022-07-27T14:40:13.576Z,41.30
2022-07-27T14:42:41.551Z,41.00
2022-07-27T14:45:12.687Z,41.71
2022-07-27T14:47:41.915Z,41.56
2022-07-27T14:50:09.972Z,40.98
2022-07-27T14:52:37.766Z,41.42
2022-07-27T14:55:06.196Z,40.96
2022-07-27T14:57:34.449Z,41.08
2022-07-27T15:00:09.197Z,41.14
2022-07-27T15:02:37.406Z,41.43
2022-07-27T15:05:08.235Z,41.24
2022-07-27T15:07:36.030Z,41.34
2022-07-27T15:10:04.033Z,41.60
2022-07-27T15:12:37.549Z,41.73
2022-07-27T15:15:08.351Z,41.65
2022-07-27T15:17:37.750Z,41.45
2022-07-27T15:20:08.672Z,41.52
2022-07-27T15:22:36.672Z,41.22
2022-07-27T15:25:04.774Z,41.07
2022-07-27T15:27:33.054Z,41.34
2022-07-27T15:30:00.895Z,41.24
2022-07-27T15:32:28.667Z,41.21
2022-07-27T15:34:58.153Z,41.14
2022-07-27T15:37:27.311Z,41.49
2022-07-27T15:39:55.165Z,41.52
2022-07-27T15:42:22.948Z,41.69
2022-07-27T15:44:50.807Z,41.54
2022-07-27T15:47:19.044Z,41.11
2022-07-27T15:49:46.853Z,41.69
2022-07-27T15:52:14.749Z,40.96
2022-07-27T15:54:45.765Z,41.05
2022-07-27T15:57:14.065Z,41.50
2022-07-27T15:59:41.961Z,41.14
2022-07-27T16:02:10.162Z,41.19
2022-07-27T16:04:38.730Z,41.71
2022-07-27T16:07:06.617Z,41.40
2022-07-27T16:09:34.425Z,41.17
2022-07-27T16:12:03.649Z,41.25
2022-07-27T16:14:31.493Z,41.08
2022-07-27T16:17:02.336Z,41.22
2022-07-27T16:19:30.103Z,41.18
2022-07-27T16:21:57.920Z,41.36
2022-07-27T16:24:26.311Z,40.98
2022-07-27T16:26:54.939Z,41.64
2022-07-27T16:29:24.223Z,41.66
2022-07-27T16:31:54.816Z,41.18
2022-07-27T16:34:22.697Z,41.14
2022-07-27T16:36:50.968Z,41.24
2022-07-27T16:39:18.874Z,41.25
2022-07-27T16:41:47.264Z,41.08
2022-07-27T16:44:15.617Z,41.72
2022-07-27T16:46:44.863Z,41.59
2022-07-27T16:49:13.454Z,41.48
2022-07-27T16:51:41.661Z,41.15
2022-07-27T16:54:09.493Z,41.35
2022-07-27T16:56:37.733Z,41.38
2022-07-27T16:59:05.742Z,41.67
2022-07-27T17:01:34.110Z,41.18
2022-07-27T17:04:03.408Z,41.32
2022-07-27T17:06:32.005Z,41.05
2022-07-27T17:08:59.856Z,41.69
2022-07-27T17:11:27.656Z,41.34
2022-07-27T17:13:58.983Z,41.59
2022-07-27T17:16:27.895Z,41.53
2022-07-27T17:18:55.798Z,41.16
2022-07-27T17:21:25.319Z,41.28
2022-07-27T17:23:53.458Z,41.16
2022-07-27T17:26:24.296Z,41.11
2022-07-27T17:28:53.194Z,41.44
2022-07-27T17:31:22.025Z,41.27
2022-07-27T17:33:50.271Z,41.21
2022-07-27T17:36:18.561Z,41.20
2022-07-27T17:38:47.961Z,41.30
2022-07-27T17:41:21.748Z,41.03
2022-07-27T17:43:52.068Z,41.09
2022-07-27T17:46:20.327Z,41.14
2022-07-27T17:48:48.205Z,41.57
2022-07-27T17:51:16.083Z,41.17
2022-07-27T17:53:43.878Z,41.20
2022-07-27T17:56:13.395Z,41.18
2022-07-27T17:58:42.894Z,41.74
2022-07-27T18:01:10.726Z,41.37
2022-07-27T18:03:38.532Z,41.12
2022-07-27T18:06:07.205Z,41.20
2022-07-27T18:08:35.002Z,41.29
2022-07-27T18:11:02.830Z,41.79
2022-07-27T18:13:38.995Z,41.63
2022-07-27T18:16:08.039Z,41.09
2022-07-27T18:18:37.175Z,41.13
2022-07-27T18:21:05.302Z,41.03
2022-07-27T18:23:33.203Z,41.36
2022-07-27T18:26:01.360Z,41.68
2022-07-27T18:28:29.135Z,41.52
2022-07-27T18:30:58.342Z,41.71
2022-07-27T18:33:26.231Z,41.64
2022-07-27T18:36:05.205Z,41.17
2022-07-27T18:38:33.072Z,41.13
2022-07-27T18:41:00.895Z,41.81
2022-07-27T18:43:29.081Z,41.50
2022-07-27T18:45:58.760Z,41.75
2022-07-27T18:48:27.511Z,41.27
2022-07-27T18:50:55.401Z,41.12
2022-07-27T18:53:23.362Z,41.25
2022-07-27T18:55:56.002Z,41.17
2022-07-27T18:58:24.646Z,41.27
2022-07-27T19:00:52.684Z,41.34
2022-07-27T19:03:24.731Z,41.65
2022-07-27T19:05:56.075Z,41.30
2022-07-27T19:08:24.093Z,41.37
2022-07-27T19:10:52.397Z,41.79
2022-07-27T19:13:20.311Z,41.12
2022-07-27T19:15:48.716Z,41.26
2022-07-27T19:18:16.518Z,41.18
2022-07-27T19:20:45.777Z,41.26
2022-07-27T19:23:13.710Z,40.98
2022-07-27T19:25:41.920Z,41.18
2022-07-27T19:28:09.762Z,41.26
2022-07-27T19:30:38.740Z,41.57
2022-07-27T19:33:06.975Z,41.12
2022-07-27T19:35:35.179Z,40.96
2022-07-27T19:38:04.340Z,41.09
2022-07-27T19:40:47.465Z,41.59
2022-07-27T19:43:15.880Z,41.49
2022-07-27T19:45:44.399Z,41.35
2022-07-27T19:48:12.334Z,40.97
2022-07-27T19:50:40.583Z,41.31
2022-07-27T19:53:10.927Z,41.43
2022-07-27T19:55:39.185Z,41.49
2022-07-27T19:58:07.009Z,41.50
2022-07-27T20:00:34.836Z,41.60
2022-07-27T20:03:03.264Z,40.91
2022-07-27T20:05:31.353Z,41.47
2022-07-27T20:07:59.209Z,41.57
2022-07-27T20:10:28.458Z,40.92
2022-07-27T20:12:56.386Z,41.03
2022-07-27T20:15:24.445Z,41.43
2022-07-27T20:17:52.280Z,41.52
2022-07-27T20:20:20.302Z,40.79
2022-07-27T20:22:48.173Z,40.92
2022-07-27T20:25:16.110Z,41.08
2022-07-27T20:27:45.909Z,40.93
2022-07-27T20:30:16.201Z,40.96
2022-07-27T20:32:44.159Z,41.54
2022-07-27T20:35:11.984Z,41.02
2022-07-27T20:37:40.556Z,40.96
2022-07-27T20:40:11.384Z,41.38
2022-07-27T20:42:40.274Z,41.42
2022-07-27T20:45:14.340Z,40.92
2022-07-27T20:47:42.810Z,40.97
2022-07-27T20:50:11.902Z,41.47
2022-07-27T20:52:39.740Z,40.88
2022-07-27T20:55:08.267Z,41.29
2022-07-27T20:57:36.603Z,40.75
2022-07-27T21:00:04.880Z,40.97
2022-07-27T21:02:34.076Z,40.88
2022-07-27T21:05:01.943Z,41.08
2022-07-27T21:07:30.063Z,40.79
2022-07-27T21:09:58.108Z,40.82
2022-07-27T21:12:25.914Z,41.08
2022-07-27T21:14:54.232Z,40.70
2022-07-27T21:17:23.491Z,41.30
2022-07-27T21:19:53.356Z,40.90
2022-07-27T21:22:21.295Z,40.71
2022-07-27T21:24:49.669Z,41.32
2022-07-27T21:27:21.024Z,40.65
2022-07-27T21:29:49.571Z,40.77
2022-07-27T21:32:17.521Z,40.79
2022-07-27T21:34:45.563Z,40.66
2022-07-27T21:37:15.148Z,41.17
2022-07-27T21:39:45.613Z,41.08
2022-07-27T21:42:13.415Z,41.13
2022-07-27T21:44:41.702Z,40.92
2022-07-27T21:47:13.776Z,41.17
2022-07-27T21:49:42.388Z,40.68
2022-07-27T21:52:11.183Z,40.52
2022-07-27T21:54:40.555Z,41.01
2022-07-27T21:57:08.884Z,40.58
2022-07-27T21:59:36.667Z,41.15
2022-07-27T22:02:04.569Z,41.21
2022-07-27T22:04:32.483Z,41.04
2022-07-27T22:07:00.700Z,40.55
2022-07-27T22:09:28.535Z,41.03
2022-07-27T22:11:57.778Z,40.38
2022-07-27T22:14:25.609Z,40.46
2022-07-27T22:16:54.030Z,40.53
2022-07-27T22:19:22.008Z,40.83
2022-07-27T22:21:49.810Z,40.87
2022-07-27T22:24:17.915Z,40.89
2022-07-27T22:26:46.453Z,40.46
2022-07-27T22:29:15.582Z,40.31
2022-07-27T22:31:43.566Z,40.35
2022-07-27T22:34:11.790Z,41.06
2022-07-27T22:36:39.819Z,40.23
2022-07-27T22:39:07.631Z,40.42
2022-07-27T22:41:35.503Z,40.96
2022-07-27T22:44:03.343Z,40.75
2022-07-27T22:46:33.145Z,40.84
2022-07-27T22:49:01.000Z,40.41
2022-07-27T22:51:50.306Z,40.77
2022-07-27T22:54:17.419Z,40.33
2022-07-27T22:56:45.408Z,40.69
2022-07-27T22:59:13.202Z,40.81
2022-07-27T23:01:45.942Z,40.56
2022-07-27T23:04:16.108Z,40.54
2022-07-27T23:06:44.747Z,40.37
2022-07-27T23:09:12.573Z,40.68
2022-07-27T23:11:40.368Z,40.52
2022-07-27T23:14:08.615Z,40.24
2022-07-27T23:16:36.777Z,40.14
2022-07-27T23:19:05.990Z,40.61
2022-07-27T23:21:33.798Z,40.18
2022-07-27T23:24:01.723Z,40.22
2022-07-27T23:26:33.096Z,40.15
2022-07-27T23:29:01.478Z,40.39
2022-07-27T23:31:29.285Z,40.65
2022-07-27T23:33:57.180Z,40.29
2022-07-27T23:36:26.803Z,40.20
2022-07-27T23:38:54.575Z,40.27
2022-07-27T23:41:22.409Z,40.26
2022-07-27T23:43:50.212Z,40.61
2022-07-27T23:46:18.439Z,40.50
2022-07-27T23:48:46.354Z,40.67
2022-07-27T23:51:17.803Z,40.64
2022-07-27T23:53:47.615Z,40.55
2022-07-27T23:56:15.892Z,40.26
2022-07-27T23:58:43.666Z,40.54
